createdAt,value
2019-05-22T00:02:02.380Z,11.40
2019-05-22T00:04:31.469Z,11.40
2019-05-22T00:07:00.400Z,11.40
2019-05-22T00:09:30.125Z,11.40
2019-05-22T00:11:59.422Z,11.50
2019-05-22T00:14:27.196Z,11.50
2019-05-22T00:16:56.281Z,11.40
2019-05-22T00:19:23.747Z,11.40
2019-05-22T00:21:52.300Z,11.40
2019-05-22T00:24:19.319Z,11.30
2019-05-22T00:26:46.250Z,11.40
2019-05-22T00:29:13.404Z,11.30
2019-05-22T00:31:41.088Z,11.20
2019-05-22T00:34:08.936Z,11.30
2019-05-22T00:36:36.501Z,11.20
2019-05-22T00:39:06.085Z,11.20
2019-05-22T00:41:34.308Z,11.20
2019-05-22T00:44:01.662Z,11.10
2019-05-22T00:46:29.545Z,11.10
2019-05-22T00:48:57.099Z,11.10
2019-05-22T00:51:36.185Z,11.00
2019-05-22T00:54:26.544Z,10.90
2019-05-22T00:56:55.600Z,10.80
2019-05-22T00:59:42.291Z,10.80
2019-05-22T01:02:12.556Z,10.70
2019-05-22T01:04:42.396Z,10.60
2019-05-22T01:07:12.588Z,10.60
2019-05-22T01:09:41.758Z,10.50
2019-05-22T01:12:16.391Z,10.40
2019-05-22T01:14:44.376Z,10.40
2019-05-22T01:17:13.219Z,10.40
2019-05-22T01:19:40.363Z,10.40
2019-05-22T01:22:09.211Z,10.40
2019-05-22T01:24:37.673Z,10.40
2019-05-22T01:27:07.339Z,10.50
2019-05-22T01:29:36.653Z,10.50
2019-05-22T01:32:14.744Z,10.40
2019-05-22T01:34:42.350Z,10.30
2019-05-22T01:37:11.021Z,10.30
2019-05-22T01:39:44.778Z,10.30
2019-05-22T01:42:13.871Z,10.30
2019-05-22T01:44:41.051Z,10.40
2019-05-22T01:47:13.041Z,10.50
2019-05-22T01:49:43.253Z,10.50
2019-05-22T01:52:12.148Z,10.50
2019-05-22T01:54:40.521Z,10.50
2019-05-22T01:57:10.250Z,10.50
2019-05-22T01:59:38.735Z,10.60
2019-05-22T02:02:07.859Z,10.50
2019-05-22T02:04:35.013Z,10.60
2019-05-22T02:07:03.330Z,10.60
2019-05-22T02:09:34.784Z,10.60
2019-05-22T02:12:07.090Z,10.60
2019-05-22T02:14:34.363Z,10.60
2019-05-22T02:17:02.415Z,10.60
2019-05-22T02:19:29.831Z,10.60
2019-05-22T02:21:58.425Z,10.50
2019-05-22T02:24:25.893Z,10.50
2019-05-22T02:26:55.366Z,10.50
2019-05-22T02:29:22.429Z,10.50
2019-05-22T02:31:50.290Z,10.50
2019-05-22T02:34:17.387Z,10.60
2019-05-22T02:36:45.281Z,10.50
2019-05-22T02:39:15.434Z,10.40
2019-05-22T02:41:49.774Z,10.40
2019-05-22T02:44:18.142Z,10.50
2019-05-22T02:46:45.986Z,10.50
2019-05-22T02:49:14.194Z,10.50
2019-05-22T02:51:43.138Z,10.60
2019-05-22T02:54:10.398Z,10.50
2019-05-22T02:56:37.477Z,10.50
2019-05-22T02:59:07.159Z,10.50
2019-05-22T03:01:34.462Z,10.50
2019-05-22T03:04:01.921Z,10.50
2019-05-22T03:06:29.090Z,10.50
2019-05-22T03:09:02.134Z,10.50
2019-05-22T03:11:36.720Z,10.50
2019-05-22T03:14:06.566Z,10.50
2019-05-22T03:16:55.855Z,10.50
2019-05-22T03:19:28.864Z,10.50
2019-05-22T03:21:56.784Z,10.50
2019-05-22T03:24:25.131Z,10.50
2019-05-22T03:26:53.817Z,10.40
2019-05-22T03:29:24.286Z,10.40
2019-05-22T03:31:52.224Z,10.40
2019-05-22T03:34:19.941Z,10.40
2019-05-22T03:36:48.300Z,10.20
2019-05-22T03:39:16.148Z,10.30
2019-05-22T03:41:43.506Z,10.20
2019-05-22T03:44:10.698Z,10.20
2019-05-22T03:46:42.640Z,10.10
2019-05-22T03:49:28.285Z,10.00
2019-05-22T03:51:40.785Z,10.00
2019-05-22T03:54:08.754Z,9.90
2019-05-22T03:56:38.934Z,9.90
2019-05-22T03:59:06.703Z,9.70
2019-05-22T04:01:35.596Z,9.70
2019-05-22T04:04:05.965Z,9.70
2019-05-22T04:06:33.711Z,9.70
2019-05-22T04:09:05.906Z,9.70
2019-05-22T04:11:36.257Z,9.60
2019-05-22T04:14:03.825Z,9.60
2019-05-22T04:16:30.891Z,9.60
2019-05-22T04:19:00.043Z,9.60
2019-05-22T04:21:28.818Z,9.60
2019-05-22T04:23:56.372Z,9.60
2019-05-22T04:26:24.014Z,9.60
2019-05-22T04:28:53.499Z,9.70
2019-05-22T04:31:24.109Z,9.80
2019-05-22T04:33:51.172Z,9.80
2019-05-22T04:36:19.339Z,9.80
2019-05-22T04:38:46.213Z,9.80
2019-05-22T04:41:13.859Z,9.90
2019-05-22T04:43:40.841Z,10.00
2019-05-22T04:46:09.321Z,10.10
2019-05-22T04:48:37.179Z,10.10
2019-05-22T04:51:23.538Z,10.10
2019-05-22T04:53:52.918Z,10.20
2019-05-22T04:56:20.738Z,10.30
2019-05-22T04:58:47.902Z,10.30
2019-05-22T05:01:14.873Z,10.40
2019-05-22T05:03:41.639Z,10.40
2019-05-22T05:06:08.912Z,10.50
2019-05-22T05:08:36.896Z,10.60
2019-05-22T05:11:04.756Z,10.70
2019-05-22T05:13:31.777Z,10.70
2019-05-22T05:15:58.779Z,10.80
2019-05-22T05:18:25.927Z,10.80
2019-05-22T05:20:52.618Z,10.80
2019-05-22T05:23:19.795Z,10.90
2019-05-22T05:25:46.612Z,11.00
2019-05-22T05:28:14.025Z,11.10
2019-05-22T05:30:41.167Z,11.20
2019-05-22T05:33:08.421Z,11.30
2019-05-22T05:35:36.022Z,11.50
2019-05-22T05:38:04.252Z,11.60
2019-05-22T05:40:41.778Z,11.70
2019-05-22T05:43:10.031Z,11.80
2019-05-22T05:45:38.895Z,12.00
2019-05-22T05:48:08.402Z,12.10
2019-05-22T05:50:40.187Z,12.20
2019-05-22T05:53:06.151Z,12.30
2019-05-22T05:55:55.248Z,12.40
2019-05-22T05:58:24.844Z,12.40
2019-05-22T06:00:54.661Z,12.50
2019-05-22T06:03:30.880Z,12.60
2019-05-22T06:06:04.758Z,12.80
2019-05-22T06:08:33.114Z,12.90
2019-05-22T06:11:31.154Z,13.00
2019-05-22T06:13:58.033Z,13.10
2019-05-22T06:17:00.212Z,13.30
2019-05-22T06:19:29.539Z,13.40
2019-05-22T06:21:57.658Z,13.50
2019-05-22T06:24:35.945Z,13.70
2019-05-22T06:27:10.324Z,13.90
2019-05-22T06:29:57.053Z,14.10
2019-05-22T06:32:36.977Z,14.30
2019-05-22T06:35:07.050Z,14.60
2019-05-22T06:37:49.126Z,14.70
2019-05-22T06:40:16.871Z,14.70
2019-05-22T06:42:47.572Z,14.90
2019-05-22T06:45:14.347Z,15.20
2019-05-22T06:47:41.166Z,15.40
2019-05-22T06:50:08.342Z,15.60
2019-05-22T06:52:35.643Z,15.70
2019-05-22T06:55:03.209Z,15.90
2019-05-22T06:57:31.526Z,16.20
2019-05-22T07:00:13.499Z,16.50
2019-05-22T07:02:31.863Z,16.80
2019-05-22T07:04:58.625Z,17.10
2019-05-22T07:07:26.606Z,17.30
2019-05-22T07:09:54.431Z,17.40
2019-05-22T07:12:23.233Z,17.80
2019-05-22T07:15:10.461Z,18.00
2019-05-22T07:17:37.181Z,18.00
2019-05-22T07:20:07.355Z,17.90
2019-05-22T07:22:34.831Z,17.80
2019-05-22T07:25:03.445Z,17.70
2019-05-22T07:27:31.285Z,17.50
2019-05-22T07:29:58.186Z,17.50
2019-05-22T07:32:26.164Z,17.50
2019-05-22T07:34:54.079Z,17.60
2019-05-22T07:37:22.062Z,17.60
2019-05-22T07:39:49.171Z,17.60
2019-05-22T07:42:16.134Z,17.60
2019-05-22T07:44:43.148Z,17.60
2019-05-22T07:47:11.604Z,17.70
2019-05-22T07:49:39.369Z,17.90
2019-05-22T07:52:07.014Z,18.00
2019-05-22T07:54:34.941Z,18.10
2019-05-22T07:57:02.287Z,18.20
2019-05-22T07:59:29.347Z,18.30
2019-05-22T08:01:57.690Z,18.40
2019-05-22T08:04:26.207Z,18.50
2019-05-22T08:06:53.342Z,18.70
2019-05-22T08:09:21.830Z,19.00
2019-05-22T08:11:48.861Z,19.30
2019-05-22T08:14:16.334Z,19.50
2019-05-22T08:16:43.615Z,19.50
2019-05-22T08:19:10.688Z,19.50
2019-05-22T08:21:38.082Z,19.50
2019-05-22T08:24:05.313Z,19.40
2019-05-22T08:26:33.501Z,19.40
2019-05-22T08:29:01.843Z,19.60
2019-05-22T08:31:29.348Z,19.50
2019-05-22T08:33:57.105Z,19.50
2019-05-22T08:36:24.323Z,19.60
2019-05-22T08:38:52.443Z,19.60
2019-05-22T08:41:26.526Z,19.60
2019-05-22T08:44:14.482Z,19.70
2019-05-22T08:46:23.289Z,19.70
2019-05-22T08:48:52.005Z,19.70
2019-05-22T08:51:19.410Z,19.60
2019-05-22T08:53:48.632Z,19.80
2019-05-22T08:56:15.996Z,19.60
2019-05-22T08:58:43.811Z,19.60
2019-05-22T09:01:11.474Z,19.60
2019-05-22T09:03:38.188Z,19.70
2019-05-22T09:06:05.004Z,19.70
2019-05-22T09:08:32.568Z,19.70
2019-05-22T09:10:59.372Z,19.70
2019-05-22T09:13:26.553Z,19.80
2019-05-22T09:15:54.264Z,19.90
2019-05-22T09:18:21.553Z,20.00
2019-05-22T09:20:49.797Z,20.00
2019-05-22T09:23:16.810Z,20.00
2019-05-22T09:25:45.904Z,20.00
2019-05-22T09:28:12.931Z,20.20
2019-05-22T09:30:39.841Z,20.30
2019-05-22T09:33:08.360Z,20.30
2019-05-22T09:35:35.342Z,20.40
2019-05-22T09:38:02.199Z,20.40
2019-05-22T09:40:31.790Z,20.50
2019-05-22T09:42:59.873Z,20.70
2019-05-22T09:45:26.933Z,21.20
2019-05-22T09:47:55.472Z,21.60
2019-05-22T09:50:23.226Z,21.60
2019-05-22T09:52:57.645Z,21.20
2019-05-22T09:55:19.716Z,20.80
2019-05-22T09:57:47.521Z,20.60
2019-05-22T10:00:15.233Z,20.60
2019-05-22T10:02:42.752Z,20.70
2019-05-22T10:05:10.498Z,20.80
2019-05-22T10:07:37.901Z,21.20
2019-05-22T10:10:05.742Z,21.20
2019-05-22T10:12:33.663Z,21.10
2019-05-22T10:15:01.467Z,21.20
2019-05-22T10:17:28.813Z,21.10
2019-05-22T10:19:57.724Z,21.20
2019-05-22T10:22:28.452Z,21.40
2019-05-22T10:25:13.949Z,21.50
2019-05-22T10:27:24.563Z,22.00
2019-05-22T10:29:51.938Z,22.10
2019-05-22T10:32:19.013Z,21.90
2019-05-22T10:34:45.888Z,21.80
2019-05-22T10:37:17.297Z,21.80
2019-05-22T10:39:45.564Z,21.70
2019-05-22T10:42:12.307Z,21.70
2019-05-22T10:44:39.096Z,21.60
2019-05-22T10:47:05.981Z,21.50
2019-05-22T10:49:32.966Z,21.60
2019-05-22T10:51:59.736Z,21.40
2019-05-22T10:54:26.815Z,21.40
2019-05-22T10:56:53.861Z,21.40
2019-05-22T10:59:22.065Z,21.50
2019-05-22T11:01:49.111Z,21.60
2019-05-22T11:04:19.279Z,21.80
2019-05-22T11:06:46.507Z,22.20
2019-05-22T11:09:15.320Z,22.30
2019-05-22T11:11:42.635Z,22.20
2019-05-22T11:14:09.734Z,22.00
2019-05-22T11:16:37.699Z,21.90
2019-05-22T11:19:05.571Z,21.80
2019-05-22T11:21:32.817Z,21.70
2019-05-22T11:24:00.487Z,21.90
2019-05-22T11:32:21.633Z,21.30
2019-05-22T11:34:50.579Z,21.20
2019-05-22T11:37:18.708Z,21.20
2019-05-22T11:39:46.610Z,21.20
2019-05-22T11:42:16.275Z,21.40
2019-05-22T11:44:43.081Z,22.00
2019-05-22T11:47:12.255Z,22.00
2019-05-22T11:49:39.153Z,22.00
2019-05-22T11:52:06.859Z,21.70
2019-05-22T11:54:33.677Z,21.80
2019-05-22T12:10:21.586Z,22.10
2019-05-22T12:12:50.182Z,22.60
2019-05-22T12:15:20.970Z,22.20
2019-05-22T12:17:47.961Z,22.10
2019-05-22T12:20:16.137Z,22.30
2019-05-22T12:22:44.340Z,22.60
2019-05-22T12:25:13.215Z,22.90
2019-05-22T12:27:40.490Z,23.10
2019-05-22T12:30:08.988Z,22.80
2019-05-22T12:32:35.832Z,22.40
2019-05-22T12:35:04.392Z,22.10
2019-05-22T12:37:33.002Z,22.10
2019-05-22T12:40:00.573Z,22.30
2019-05-22T12:42:27.849Z,22.60
2019-05-22T12:44:55.220Z,22.70
2019-05-22T12:47:23.577Z,22.30
2019-05-22T12:49:50.533Z,22.30
2019-05-22T12:52:17.810Z,22.30
2019-05-22T12:54:49.636Z,22.40
2019-05-22T12:57:14.882Z,22.40
2019-05-22T12:59:46.900Z,22.40
2019-05-22T13:02:15.248Z,22.40
2019-05-22T13:04:42.361Z,22.20
2019-05-22T13:07:09.154Z,22.10
2019-05-22T13:09:36.970Z,22.10
2019-05-22T13:12:04.962Z,22.20
2019-05-22T13:14:32.152Z,22.20
2019-05-22T13:17:00.658Z,22.10
2019-05-22T13:19:31.929Z,22.10
2019-05-22T13:22:00.414Z,22.00
2019-05-22T13:24:28.055Z,21.70
2019-05-22T13:26:56.882Z,21.60
2019-05-22T13:29:24.542Z,21.60
2019-05-22T13:31:52.063Z,21.60
2019-05-22T13:34:21.910Z,21.70
2019-05-22T13:36:49.834Z,21.60
2019-05-22T13:39:17.375Z,21.40
2019-05-22T13:41:44.534Z,21.30
2019-05-22T13:44:12.201Z,21.40
2019-05-22T13:46:39.413Z,21.30
2019-05-22T13:49:06.307Z,21.20
2019-05-22T13:51:33.330Z,21.30
2019-05-22T13:54:00.167Z,21.40
2019-05-22T13:56:27.455Z,21.40
2019-05-22T13:58:54.793Z,21.40
2019-05-22T14:01:22.179Z,21.40
2019-05-22T14:03:49.253Z,21.50
2019-05-22T14:06:16.353Z,21.60
2019-05-22T14:08:43.730Z,21.40
2019-05-22T14:11:11.157Z,21.30
2019-05-22T14:13:38.185Z,21.30
2019-05-22T14:16:05.017Z,21.20
2019-05-22T14:18:32.004Z,21.20
2019-05-22T14:20:59.051Z,21.20
2019-05-22T14:23:26.614Z,21.20
2019-05-22T14:25:54.139Z,21.20
2019-05-22T14:28:22.035Z,21.20
2019-05-22T14:30:49.378Z,21.20
2019-05-22T14:33:16.661Z,21.20
2019-05-22T14:35:48.930Z,21.20
2019-05-22T14:38:14.228Z,21.20
2019-05-22T14:40:41.729Z,21.10
2019-05-22T14:43:09.657Z,21.10
2019-05-22T14:45:37.114Z,21.10
2019-05-22T14:48:04.160Z,21.10
2019-05-22T14:50:33.193Z,21.20
2019-05-22T14:53:00.293Z,21.40
2019-05-22T14:55:29.245Z,21.30
2019-05-22T14:57:57.035Z,21.20
2019-05-22T15:00:26.837Z,21.20
2019-05-22T15:02:57.755Z,21.10
2019-05-22T15:05:22.676Z,21.00
2019-05-22T15:07:49.595Z,21.20
2019-05-22T15:10:19.132Z,21.20
2019-05-22T15:12:46.378Z,21.10
2019-05-22T15:15:13.958Z,20.90
2019-05-22T15:17:41.010Z,20.90
2019-05-22T15:20:18.391Z,20.80
2019-05-22T15:22:45.186Z,20.70
2019-05-22T15:25:12.579Z,20.50
2019-05-22T15:27:40.750Z,20.50
2019-05-22T15:30:08.611Z,20.40
2019-05-22T15:32:35.784Z,20.20
2019-05-22T15:35:04.281Z,20.10
2019-05-22T15:37:31.062Z,20.10
2019-05-22T15:39:58.772Z,20.00
2019-05-22T15:42:34.795Z,19.90
2019-05-22T15:45:03.269Z,20.00
2019-05-22T15:47:30.642Z,20.00
2019-05-22T15:49:57.515Z,20.00
2019-05-22T15:52:26.997Z,20.10
2019-05-22T15:54:54.029Z,20.00
2019-05-22T15:57:21.183Z,20.00
2019-05-22T15:59:49.337Z,19.90
2019-05-22T16:02:21.531Z,19.80
2019-05-22T16:04:46.930Z,19.70
2019-05-22T16:07:17.201Z,19.70
2019-05-22T16:09:45.076Z,19.60
2019-05-22T16:12:12.481Z,19.70
2019-05-22T16:14:41.153Z,19.70
2019-05-22T16:17:08.217Z,19.60
2019-05-22T16:19:35.662Z,19.40
2019-05-22T16:22:06.194Z,19.30
2019-05-22T16:24:34.470Z,19.20
2019-05-22T16:27:01.553Z,19.20
2019-05-22T16:29:29.555Z,19.10
2019-05-22T16:31:57.214Z,19.10
2019-05-22T16:34:28.406Z,19.00
2019-05-22T16:36:54.771Z,19.00
2019-05-22T16:39:22.484Z,19.00
2019-05-22T16:41:49.523Z,19.00
2019-05-22T16:44:16.699Z,19.00
2019-05-22T16:46:45.467Z,19.00
2019-05-22T16:49:13.152Z,19.00
2019-05-22T16:51:40.717Z,18.90
2019-05-22T16:54:07.879Z,18.80
2019-05-22T16:56:36.613Z,18.80
2019-05-22T16:59:04.568Z,18.70
2019-05-22T17:01:32.145Z,18.70
2019-05-22T17:04:00.691Z,18.70
2019-05-22T17:06:28.846Z,18.50
2019-05-22T17:08:58.742Z,18.40
2019-05-22T17:11:26.573Z,18.40
2019-05-22T17:13:57.233Z,18.40
2019-05-22T17:16:25.295Z,18.30
2019-05-22T17:18:52.632Z,18.20
2019-05-22T17:21:20.970Z,18.10
2019-05-22T17:23:48.560Z,18.10
2019-05-22T17:26:15.737Z,18.10
2019-05-22T17:28:43.507Z,18.10
2019-05-22T17:31:10.677Z,17.90
2019-05-22T17:33:39.024Z,17.80
2019-05-22T17:36:06.334Z,17.80
2019-05-22T17:38:34.074Z,17.70
2019-05-22T17:41:03.253Z,17.70
2019-05-22T17:43:31.467Z,17.80
2019-05-22T17:46:00.328Z,17.70
2019-05-22T17:48:27.229Z,17.70
2019-05-22T17:50:54.640Z,17.60
2019-05-22T17:53:22.031Z,17.50
2019-05-22T17:55:49.136Z,17.30
2019-05-22T17:58:16.274Z,17.30
2019-05-22T18:00:45.023Z,17.20
2019-05-22T18:03:13.965Z,17.20
2019-05-22T18:05:41.779Z,17.10
2019-05-22T18:08:11.061Z,17.10
2019-05-22T18:10:40.581Z,17.00
2019-05-22T18:13:09.405Z,16.90
2019-05-22T18:15:37.443Z,16.90
2019-05-22T18:18:07.032Z,16.80
2019-05-22T18:20:43.356Z,16.70
2019-05-22T18:23:04.107Z,16.70
2019-05-22T18:25:31.600Z,16.50
2019-05-22T18:27:58.546Z,16.50
2019-05-22T18:30:26.710Z,16.50
2019-05-22T18:32:53.992Z,16.40
2019-05-22T18:35:21.120Z,16.20
2019-05-22T18:37:47.998Z,16.10
2019-05-22T18:40:15.868Z,16.00
2019-05-22T18:42:42.625Z,16.10
2019-05-22T18:45:09.625Z,16.00
2019-05-22T18:47:36.781Z,16.00
2019-05-22T18:50:05.760Z,16.00
2019-05-22T18:52:41.132Z,16.00
2019-05-22T18:55:04.246Z,16.10
2019-05-22T18:57:32.831Z,16.00
2019-05-22T19:00:03.834Z,16.00
2019-05-22T19:02:28.944Z,16.00
2019-05-22T19:04:55.812Z,16.00
2019-05-22T19:07:22.667Z,16.00
2019-05-22T19:09:49.991Z,15.80
2019-05-22T19:12:16.988Z,15.80
2019-05-22T19:14:43.877Z,15.80
2019-05-22T19:17:10.770Z,15.80
2019-05-22T19:19:37.693Z,15.80
2019-05-22T19:22:04.519Z,15.80
2019-05-22T19:24:31.457Z,15.80
2019-05-22T19:26:58.294Z,15.90
2019-05-22T19:29:25.076Z,15.70
2019-05-22T19:31:52.392Z,15.70
2019-05-22T19:34:19.550Z,15.60
2019-05-22T19:36:46.396Z,15.60
2019-05-22T19:39:13.487Z,15.70
2019-05-22T19:41:40.621Z,15.70
2019-05-22T19:44:08.585Z,15.60
2019-05-22T19:46:35.385Z,15.40
2019-05-22T19:49:02.757Z,15.30
2019-05-22T19:51:29.621Z,15.10
2019-05-22T19:53:56.805Z,15.00
2019-05-22T19:56:24.138Z,15.00
2019-05-22T19:58:51.417Z,15.00
2019-05-22T20:01:18.586Z,15.00
2019-05-22T20:03:45.441Z,15.10
2019-05-22T20:06:12.224Z,15.10
2019-05-22T20:08:41.100Z,15.20
2019-05-22T20:11:07.991Z,15.30
2019-05-22T20:13:35.584Z,15.30
2019-05-22T20:16:04.179Z,15.30
2019-05-22T20:18:31.559Z,15.30
2019-05-22T20:20:58.381Z,15.20
2019-05-22T20:23:35.572Z,15.20
2019-05-22T20:25:54.770Z,15.20
2019-05-22T20:28:21.546Z,15.20
2019-05-22T20:30:48.724Z,15.30
2019-05-22T20:33:16.514Z,15.20
2019-05-22T20:35:43.636Z,15.20
2019-05-22T20:38:10.889Z,15.20
2019-05-22T20:40:38.146Z,15.20
2019-05-22T20:43:07.398Z,15.10
2019-05-22T20:45:35.442Z,15.10
2019-05-22T20:48:09.142Z,15.10
2019-05-22T20:50:36.929Z,15.00
2019-05-22T20:53:04.272Z,14.80
2019-05-22T20:55:31.287Z,14.60
2019-05-22T20:57:59.814Z,14.40
2019-05-22T21:00:27.575Z,14.20
2019-05-22T21:03:01.185Z,14.20
2019-05-22T21:05:28.159Z,14.10
2019-05-22T21:07:59.377Z,13.90
2019-05-22T21:10:27.818Z,13.80
2019-05-22T21:12:55.159Z,13.60
2019-05-22T21:15:22.415Z,13.50
2019-05-22T21:17:50.664Z,13.10
2019-05-22T21:20:19.997Z,13.00
2019-05-22T21:22:46.882Z,12.80
2019-05-22T21:25:15.264Z,12.70
2019-05-22T21:27:42.380Z,12.50
2019-05-22T21:30:10.541Z,12.50
2019-05-22T21:32:37.939Z,12.30
2019-05-22T21:35:06.312Z,12.20
2019-05-22T21:37:34.072Z,12.10
2019-05-22T21:40:01.175Z,12.10
2019-05-22T21:42:28.264Z,12.10
2019-05-22T21:44:55.506Z,12.10
2019-05-22T21:47:23.021Z,12.00
2019-05-22T21:49:51.832Z,11.80
2019-05-22T21:52:20.320Z,11.70
2019-05-22T21:54:47.589Z,11.80
2019-05-22T21:57:14.907Z,11.60
2019-05-22T21:59:41.872Z,11.50
2019-05-22T22:02:11.199Z,11.40
2019-05-22T22:04:39.055Z,11.50
2019-05-22T22:07:06.623Z,11.30
2019-05-22T22:09:33.509Z,11.30
2019-05-22T22:12:00.564Z,11.30
2019-05-22T22:14:28.427Z,11.20
2019-05-22T22:16:55.855Z,11.10
2019-05-22T22:19:23.201Z,11.10
2019-05-22T22:21:50.470Z,11.10
2019-05-22T22:24:17.632Z,11.10
2019-05-22T22:26:44.492Z,11.10
2019-05-22T22:29:11.862Z,11.10
2019-05-22T22:31:38.990Z,10.90
2019-05-22T22:34:16.836Z,10.80
2019-05-22T22:36:43.636Z,10.80
2019-05-22T22:39:11.555Z,10.80
2019-05-22T22:41:39.084Z,10.80
2019-05-22T22:44:07.481Z,10.70
2019-05-22T22:46:49.676Z,10.80
2019-05-22T22:49:18.273Z,10.80
2019-05-22T22:51:46.968Z,10.60
2019-05-22T22:54:13.766Z,10.60
2019-05-22T22:56:41.660Z,10.70
2019-05-22T22:59:08.798Z,10.70
2019-05-22T23:01:39.614Z,10.60
2019-05-22T23:04:06.479Z,10.60
2019-05-22T23:06:36.072Z,10.60
2019-05-22T23:09:04.463Z,10.70
2019-05-22T23:11:31.996Z,10.60
2019-05-22T23:14:00.158Z,10.60
2019-05-22T23:16:28.237Z,10.60
2019-05-22T23:19:15.124Z,10.60
2019-05-22T23:21:44.697Z,10.60
2019-05-22T23:24:13.121Z,10.60
2019-05-22T23:26:39.901Z,10.50
2019-05-22T23:29:08.180Z,10.50
2019-05-22T23:31:35.688Z,10.50
2019-05-22T23:34:05.203Z,10.50
2019-05-22T23:36:36.108Z,10.50
2019-05-22T23:39:07.870Z,10.50
2019-05-22T23:41:37.459Z,10.60
2019-05-22T23:44:06.581Z,10.60
2019-05-22T23:46:33.631Z,10.70
2019-05-22T23:49:00.433Z,10.70
2019-05-22T23:51:27.407Z,10.80
2019-05-22T23:53:54.271Z,10.80
2019-05-22T23:56:21.804Z,10.80
2019-05-22T23:58:52.669Z,10.80
